NORTHEAST SUFFOLK  -  Special Weather Statement Special Weather Statement        NORTHERN NASSAU  -  Special Weather Statement Special Weather Statement        NORTHWEST SUFFOLK  -  Special Weather Statement Special Weather Statement        SOUTHEAST SUFFOLK  -  Special Weather Statement Special Weather Statement        SOUTHERN NASSAU  -  Special Weather Statement Special Weather Statement        SOUTHWEST SUFFOLK  -  Special Weather Statement Special Weather Statement      

Active alerts

Northern Nassau
  Details for Northern Nassau Special Weather Statement
Southern Nassau
  Details for Southern Nassau Special Weather Statement
Northwest Suffolk
  Details for Northwest Suffolk Special Weather Statement
Southwest Suffolk
  Details for Southwest Suffolk Special Weather Statement
Northeast Suffolk
  Details for Northeast Suffolk Special Weather Statement
Southeast Suffolk
  Details for Southeast Suffolk Special Weather Statement


WXM80 ListenWXM80 Stop

You find our weather info also at:

UK Metoffice

WeatherCloud

Weather Underground

Northeastern Weather Network

AWEKAS

Citizen Weather Observer Program (CWOP)

HAMweather, WeatherForYou, PWS Weather


Weather Underground History page Text

Daily Summary for September 20, 2016 Units:  English    Metric   Both
« Previous Day
Next Day »
Daily Weekly Monthly Yearly Custom
  High: Low: Average:
Temperature: 81.9 °F 69.1 °F 73.8 °F
Dew Point: 73.3 °F 67.4 °F 70 °F
Humidity: 98 % 68 % 89 %
Wind Speed: 6.9 mph 0.0 mph 0.7 mph
Wind Gust: 11.5 mph - -
Wind:- - East
Pressure: 30.10 in 30.03 in -
Precipitation: 0.00 in    
Historical Graphs
 
 
Tabular Data for September 20, 2016
Time Temperature Dew Point Pressure Wind Wind Speed Wind Gust Humidity Rainfall Rate (Hourly)
00:02 69.3 °F 68.4 °F 30.06 in Calm     97 % 0.00 in
00:07 69.4 °F 68.5 °F 30.06 in Calm     97 % 0.00 in
00:12 69.4 °F 68.5 °F 30.06 in Calm     97 % 0.00 in
00:17 69.4 °F 68.5 °F 30.05 in Calm     97 % 0.00 in
00:27 69.4 °F 68.5 °F 30.05 in Calm     97 % 0.00 in
00:38 69.5 °F 68.6 °F 30.05 in Calm     97 % 0.00 in
00:43 69.5 °F 68.6 °F 30.05 in Calm     97 % 0.00 in
00:48 69.5 °F 68.6 °F 30.05 in Calm     97 % 0.00 in
00:53 69.6 °F 68.7 °F 30.05 in Calm     97 % 0.00 in
00:58 69.6 °F 68.7 °F 30.05 in Calm     97 % 0.00 in
01:03 69.6 °F 68.7 °F 30.05 in Calm     97 % 0.00 in
01:08 69.6 °F 68.7 °F 30.05 in Calm     97 % 0.00 in
01:13 69.6 °F 68.7 °F 30.06 in Calm   1.2 mph 97 % 0.00 in
01:18 69.7 °F 68.8 °F 30.05 in NNE 1.4 mph 4.0 mph 97 % 0.00 in
01:29 69.8 °F 69.2 °F 30.05 in NE 0.4 mph 2.3 mph 98 % 0.00 in
01:34 69.9 °F 69.3 °F 30.05 in NE 1.6 mph 3.5 mph 98 % 0.00 in
01:39 69.9 °F 69.3 °F 30.05 in NE 0.1 mph 1.2 mph 98 % 0.00 in
01:44 70.0 °F 69.4 °F 30.05 in NE 1.2 mph 3.5 mph 98 % 0.00 in
01:49 70.0 °F 69.4 °F 30.05 in ENE 0.8 mph 2.3 mph 98 % 0.00 in
01:54 70.0 °F 69.4 °F 30.05 in ENE 0.2 mph 1.2 mph 98 % 0.00 in
01:59 70.1 °F 69.5 °F 30.05 in Calm   1.2 mph 98 % 0.00 in
02:04 70.1 °F 69.5 °F 30.05 in ENE 0.1 mph 2.3 mph 98 % 0.00 in
02:09 70.1 °F 69.5 °F 30.05 in Calm   2.3 mph 98 % 0.00 in
02:14 70.2 °F 69.6 °F 30.04 in Calm   1.2 mph 98 % 0.00 in
02:20 70.2 °F 69.6 °F 30.05 in ENE 0.3 mph 3.5 mph 98 % 0.00 in
02:25 70.3 °F 69.7 °F 30.04 in ENE 0.8 mph 2.3 mph 98 % 0.00 in
02:30 70.3 °F 69.7 °F 30.04 in ENE 0.8 mph 2.3 mph 98 % 0.00 in
02:35 70.3 °F 69.7 °F 30.04 in Calm   1.2 mph 98 % 0.00 in
02:40 70.4 °F 69.8 °F 30.04 in Calm   1.2 mph 98 % 0.00 in
02:50 70.3 °F 69.7 °F 30.04 in Calm   1.2 mph 98 % 0.00 in
02:55 70.4 °F 69.8 °F 30.04 in Calm     98 % 0.00 in
03:00 70.3 °F 69.7 °F 30.04 in Calm     98 % 0.00 in
03:05 70.3 °F 69.7 °F 30.03 in Calm     98 % 0.00 in
03:11 70.3 °F 69.7 °F 30.03 in Calm     98 % 0.00 in
03:16 70.2 °F 69.6 °F 30.03 in Calm     98 % 0.00 in
03:21 70.2 °F 69.6 °F 30.03 in Calm     98 % 0.00 in
03:26 70.2 °F 69.6 °F 30.03 in Calm     98 % 0.00 in
03:36 70.2 °F 69.6 °F 30.03 in Calm     98 % 0.00 in
03:41 70.1 °F 69.5 °F 30.03 in ENE 0.3 mph 1.2 mph 98 % 0.00 in
03:46 70.2 °F 69.6 °F 30.04 in ENE 0.1 mph 1.2 mph 98 % 0.00 in
03:51 70.2 °F 69.6 °F 30.04 in ENE 0.1 mph 1.2 mph 98 % 0.00 in
03:57 70.2 °F 69.6 °F 30.03 in SSE 0.1 mph 3.5 mph 98 % 0.00 in
04:02 70.2 °F 69.6 °F 30.04 in Calm   1.2 mph 98 % 0.00 in
04:07 70.2 °F 69.6 °F 30.03 in Calm     98 % 0.00 in
04:12 70.3 °F 69.7 °F 30.04 in Calm     98 % 0.00 in
04:17 70.3 °F 69.7 °F 30.03 in Calm     98 % 0.00 in
04:22 70.3 °F 69.7 °F 30.04 in SSE 0.1 mph 1.2 mph 98 % 0.00 in
04:27 70.3 °F 69.7 °F 30.03 in Calm   1.2 mph 98 % 0.00 in
04:32 70.4 °F 69.8 °F 30.03 in Calm     98 % 0.00 in
04:37 70.3 °F 69.7 °F 30.03 in Calm   1.2 mph 98 % 0.00 in
04:42 70.3 °F 69.7 °F 30.03 in Calm     98 % 0.00 in
04:48 70.3 °F 69.7 °F 30.03 in Calm     98 % 0.00 in
04:53 70.3 °F 69.7 °F 30.04 in Calm     98 % 0.00 in
04:58 70.3 °F 69.7 °F 30.03 in Calm     98 % 0.00 in
05:03 70.3 °F 69.7 °F 30.03 in Calm     98 % 0.00 in
05:08 70.2 °F 69.6 °F 30.03 in Calm     98 % 0.00 in
05:13 70.2 °F 69.6 °F 30.04 in Calm     98 % 0.00 in
05:18 70.1 °F 69.5 °F 30.04 in Calm     98 % 0.00 in
05:23 70.1 °F 69.5 °F 30.04 in Calm     98 % 0.00 in
05:28 70.0 °F 69.4 °F 30.04 in Calm     98 % 0.00 in
05:33 70.0 °F 69.4 °F 30.04 in Calm     98 % 0.00 in
05:39 69.9 °F 69.3 °F 30.04 in Calm     98 % 0.00 in
05:44 69.9 °F 69.3 °F 30.05 in Calm     98 % 0.00 in
05:49 69.8 °F 69.2 °F 30.04 in Calm     98 % 0.00 in
05:54 69.8 °F 69.2 °F 30.04 in Calm     98 % 0.00 in
05:59 69.7 °F 69.1 °F 30.04 in Calm     98 % 0.00 in
06:04 69.7 °F 68.8 °F 30.04 in Calm     97 % 0.00 in
06:09 69.6 °F 68.7 °F 30.04 in Calm     97 % 0.00 in
06:19 69.5 °F 68.6 °F 30.04 in Calm     97 % 0.00 in
06:24 69.5 °F 68.6 °F 30.04 in Calm     97 % 0.00 in
06:29 69.5 °F 68.6 °F 30.03 in Calm     97 % 0.00 in
06:35 69.4 °F 68.5 °F 30.03 in Calm     97 % 0.00 in
06:40 69.3 °F 68.4 °F 30.03 in Calm     97 % 0.00 in
06:45 69.3 °F 68.4 °F 30.04 in Calm     97 % 0.00 in
06:50 69.2 °F 68.3 °F 30.04 in Calm     97 % 0.00 in
06:55 69.2 °F 68.3 °F 30.04 in Calm     97 % 0.00 in
07:00 69.1 °F 68.2 °F 30.05 in Calm     97 % 0.00 in
07:05 69.1 °F 68.5 °F 30.05 in Calm     98 % 0.00 in
07:10 69.1 °F 68.5 °F 30.05 in Calm     98 % 0.00 in
07:15 69.2 °F 68.6 °F 30.05 in Calm     98 % 0.00 in
07:20 69.2 °F 68.6 °F 30.05 in Calm     98 % 0.00 in
07:25 69.3 °F 68.7 °F 30.06 in Calm     98 % 0.00 in
07:31 69.4 °F 68.8 °F 30.06 in Calm   1.0 mph 98 % 0.00 in
07:36 69.5 °F 68.9 °F 30.06 in Calm     98 % 0.00 in
07:41 69.6 °F 69.0 °F 30.06 in Calm     98 % 0.00 in
07:46 69.7 °F 69.1 °F 30.06 in Calm     98 % 0.00 in
07:51 69.8 °F 69.2 °F 30.06 in Calm     98 % 0.00 in
07:56 70.0 °F 69.4 °F 30.06 in Calm     98 % 0.00 in
08:01 70.2 °F 69.6 °F 30.06 in SSE 0.1 mph 1.2 mph 98 % 0.00 in
08:06 70.3 °F 69.7 °F 30.07 in NE 1.2 mph 4.0 mph 98 % 0.00 in
08:11 70.5 °F 69.9 °F 30.07 in North 5.1 mph 8.1 mph 98 % 0.00 in
08:16 70.6 °F 70.0 °F 30.07 in NNW 2.3 mph 5.8 mph 98 % 0.00 in
08:21 70.5 °F 69.9 °F 30.07 in North 4.6 mph 9.0 mph 98 % 0.00 in
08:26 70.4 °F 69.8 °F 30.07 in North 6.4 mph 9.2 mph 98 % 0.00 in
08:31 70.3 °F 69.7 °F 30.07 in NW 6.8 mph 9.0 mph 98 % 0.00 in
08:36 70.3 °F 69.7 °F 30.08 in NE 4.3 mph 8.1 mph 98 % 0.00 in
08:41 70.2 °F 69.6 °F 30.08 in North 5.5 mph 10.4 mph 98 % 0.00 in
08:46 70.1 °F 69.5 °F 30.08 in NNE 5.9 mph 10.0 mph 98 % 0.00 in
08:52 70.0 °F 69.4 °F 30.08 in NNE 6.8 mph 11.5 mph 98 % 0.00 in
08:57 70.0 °F 69.4 °F 30.09 in North 6.9 mph 11.5 mph 98 % 0.00 in
09:02 69.9 °F 69.3 °F 30.09 in NNW 6.5 mph 10.0 mph 98 % 0.00 in
09:07 69.9 °F 69.3 °F 30.09 in North 5.1 mph 8.1 mph 98 % 0.00 in
09:12 69.8 °F 69.2 °F 30.09 in North 6.4 mph 11.5 mph 98 % 0.00 in
09:17 69.8 °F 69.2 °F 30.10 in North 6.0 mph 8.1 mph 98 % 0.00 in
09:22 69.8 °F 69.2 °F 30.09 in NNW 4.7 mph 5.8 mph 98 % 0.00 in
09:27 69.8 °F 68.9 °F 30.09 in NNE 4.2 mph 6.9 mph 97 % 0.00 in
09:32 69.8 °F 69.2 °F 30.10 in NNE 3.4 mph 4.0 mph 98 % 0.00 in
09:38 69.9 °F 69.3 °F 30.10 in North 3.3 mph 3.5 mph 98 % 0.00 in
09:43 70.0 °F 69.1 °F 30.10 in NNE 3.6 mph 7.0 mph 97 % 0.00 in
09:48 70.1 °F 69.2 °F 30.10 in NNE 2.5 mph 5.8 mph 97 % 0.00 in
09:53 70.2 °F 69.3 °F 30.10 in North 2.8 mph 4.0 mph 97 % 0.00 in
09:58 70.4 °F 69.5 °F 30.10 in NNE 3.1 mph 4.6 mph 97 % 0.00 in
10:03 70.8 °F 70.2 °F 30.10 in North 2.2 mph 3.5 mph 98 % 0.00 in
10:08 71.0 °F 70.4 °F 30.10 in NNE 0.8 mph 3.5 mph 98 % 0.00 in
10:13 71.2 °F 70.6 °F 30.10 in ENE 1.8 mph 4.0 mph 98 % 0.00 in
10:18 71.2 °F 70.3 °F 30.10 in ENE 1.4 mph 3.5 mph 97 % 0.00 in
10:23 71.3 °F 70.4 °F 30.10 in North 2.7 mph 4.0 mph 97 % 0.00 in
10:29 71.6 °F 70.7 °F 30.10 in NNE 0.9 mph 3.5 mph 97 % 0.00 in
10:34 71.7 °F 70.5 °F 30.10 in ENE 1.4 mph 3.5 mph 96 % 0.00 in
10:39 71.8 °F 70.6 °F 30.09 in NE 0.5 mph 2.3 mph 96 % 0.00 in
10:44 72.0 °F 70.5 °F 30.09 in NNE 1.3 mph 2.3 mph 95 % 0.00 in
10:49 72.2 °F 70.7 °F 30.09 in North 2.7 mph 4.0 mph 95 % 0.00 in
10:54 72.2 °F 70.4 °F 30.10 in NNE 4.3 mph 5.8 mph 94 % 0.00 in
10:59 72.3 °F 70.5 °F 30.09 in NNE 1.0 mph 4.0 mph 94 % 0.00 in
11:09 72.7 °F 70.2 °F 30.09 in ENE 0.3 mph 2.3 mph 92 % 0.00 in
11:14 73.3 °F 71.2 °F 30.09 in NNE 2.4 mph 3.5 mph 93 % 0.00 in
11:20 73.7 °F 71.2 °F 30.09 in NNE 0.8 mph 3.5 mph 92 % 0.00 in
11:25 74.2 °F 71.4 °F 30.10 in North 1.7 mph 4.6 mph 91 % 0.00 in
11:30 74.6 °F 71.5 °F 30.10 in NNE 1.6 mph 3.5 mph 90 % 0.00 in
11:35 75.0 °F 71.5 °F 30.09 in NNE 1.5 mph 4.0 mph 89 % 0.00 in
11:40 75.3 °F 71.2 °F 30.09 in NE 1.9 mph 3.5 mph 87 % 0.00 in
11:45 75.8 °F 72.0 °F 30.09 in NE 1.8 mph 3.5 mph 88 % 0.00 in
11:50 76.5 °F 72.0 °F 30.09 in ENE 0.2 mph 1.2 mph 86 % 0.00 in
11:55 77.0 °F 72.5 °F 30.08 in NNE 1.7 mph 4.6 mph 86 % 0.00 in
12:05 77.8 °F 72.2 °F 30.09 in NNW 2.2 mph 4.6 mph 83 % 0.00 in
12:11 78.1 °F 72.5 °F 30.09 in NNE 2.8 mph 4.0 mph 83 % 0.00 in
12:16 78.1 °F 71.4 °F 30.09 in Calm   6.0 mph 80 % 0.00 in
12:21 78.5 °F 73.3 °F 30.09 in North 2.0 mph 4.0 mph 84 % 0.00 in
12:26 78.8 °F 72.4 °F 30.09 in NNE 1.0 mph 5.0 mph 81 % 0.00 in
12:31 79.0 °F 72.3 °F 30.09 in North 1.0 mph 4.0 mph 80 % 0.00 in
12:36 79.2 °F 72.5 °F 30.08 in North 2.0 mph 5.0 mph 80 % 0.00 in
12:41 79.5 °F 72.4 °F 30.08 in NNE 0.6 mph 3.5 mph 79 % 0.00 in
12:46 79.7 °F 72.3 °F 30.08 in NNE 1.0 mph 3.0 mph 78 % 0.00 in
12:51 79.9 °F 72.4 °F 30.08 in NE 1.0 mph 5.0 mph 78 % 0.00 in
12:56 80.2 °F 72.7 °F 30.08 in ESE 0.2 mph 1.2 mph 78 % 0.00 in
13:01 80.5 °F 72.6 °F 30.08 in ESE 0.2 mph 1.2 mph 77 % 0.00 in
13:11 80.8 °F 71.3 °F 30.08 in Calm   2.3 mph 73 % 0.00 in
13:21 81.1 °F 71.6 °F 30.08 in NE 1.4 mph 3.5 mph 73 % 0.00 in
13:26 81.2 °F 71.7 °F 30.08 in NE 0.5 mph 2.0 mph 73 % 0.00 in
13:31 81.3 °F 70.6 °F 30.07 in NE 1.5 mph 3.5 mph 70 % 0.00 in
13:36 81.3 °F 70.6 °F 30.07 in ENE 1.3 mph 2.3 mph 70 % 0.00 in
13:41 81.3 °F 71.4 °F 30.07 in ENE 0.4 mph 1.2 mph 72 % 0.00 in
13:46 81.5 °F 71.2 °F 30.07 in ENE 0.2 mph 1.2 mph 71 % 0.00 in
13:51 81.7 °F 71.8 °F 30.07 in ENE 1.7 mph 3.0 mph 72 % 0.00 in
13:57 81.7 °F 71.0 °F 30.07 in ENE 1.0 mph 1.2 mph 70 % 0.00 in
14:02 81.5 °F 70.3 °F 30.06 in ENE 2.4 mph 3.5 mph 69 % 0.00 in
14:07 81.3 °F 70.2 °F 30.06 in ENE 0.4 mph 2.3 mph 69 % 0.00 in
14:12 81.2 °F 70.9 °F 30.06 in Calm     71 % 0.00 in
14:17 81.3 °F 70.6 °F 30.06 in ENE 0.2 mph 1.2 mph 70 % 0.00 in
14:22 81.4 °F 70.7 °F 30.06 in ENE 0.2 mph 1.2 mph 70 % 0.00 in
14:27 81.5 °F 70.3 °F 30.05 in ENE 0.4 mph 1.2 mph 69 % 0.00 in
14:32 81.6 °F 71.3 °F 30.05 in ESE 0.7 mph 1.2 mph 71 % 0.00 in
14:37 81.6 °F 71.3 °F 30.06 in NE 1.0 mph 1.2 mph 71 % 0.00 in
14:42 81.8 °F 70.6 °F 30.06 in NE 0.7 mph 1.2 mph 69 % 0.00 in
14:47 81.9 °F 71.2 °F 30.06 in NE 0.1 mph 2.3 mph 70 % 0.00 in
14:53 81.9 °F 70.7 °F 30.05 in ENE 0.4 mph 2.3 mph 69 % 0.00 in
14:58 81.8 °F 70.2 °F 30.06 in ENE 0.4 mph 1.2 mph 68 % 0.00 in
15:03 81.8 °F 71.1 °F 30.05 in ENE 0.1 mph 1.2 mph 70 % 0.00 in
15:08 81.8 °F 70.2 °F 30.05 in NE 0.8 mph 3.5 mph 68 % 0.00 in
15:13 81.6 °F 70.0 °F 30.05 in NE 0.6 mph 2.3 mph 68 % 0.00 in
15:18 81.5 °F 70.3 °F 30.05 in Calm     69 % 0.00 in
15:28 81.4 °F 71.1 °F 30.06 in Calm     71 % 0.00 in
15:33 81.3 °F 71.0 °F 30.05 in Calm     71 % 0.00 in
15:38 81.2 °F 71.3 °F 30.06 in Calm     72 % 0.00 in
15:44 81.1 °F 71.6 °F 30.05 in Calm     73 % 0.00 in
15:49 81.0 °F 71.5 °F 30.05 in Calm     73 % 0.00 in
15:54 80.9 °F 71.0 °F 30.05 in ENE 0.4 mph 1.2 mph 72 % 0.00 in
15:59 80.9 °F 71.8 °F 30.05 in Calm     74 % 0.00 in
16:04 80.8 °F 70.9 °F 30.05 in ENE 0.3 mph 2.3 mph 72 % 0.00 in
16:09 80.7 °F 71.6 °F 30.05 in Calm     74 % 0.00 in
16:14 80.5 °F 71.4 °F 30.05 in Calm     74 % 0.00 in
16:19 80.5 °F 71.8 °F 30.05 in Calm     75 % 0.00 in
16:24 80.4 °F 70.5 °F 30.05 in ENE 0.3 mph 1.2 mph 72 % 0.00 in
16:29 80.6 °F 70.3 °F 30.05 in Calm   3.5 mph 71 % 0.00 in
16:35 80.6 °F 70.3 °F 30.05 in ESE 0.1 mph 1.2 mph 71 % 0.00 in
16:40 80.7 °F 70.0 °F 30.05 in Calm     70 % 0.00 in
16:45 80.6 °F 70.3 °F 30.05 in ESE 0.2 mph 2.0 mph 71 % 0.00 in
16:50 80.6 °F 69.5 °F 30.05 in Calm     69 % 0.00 in
16:55 80.6 °F 69.5 °F 30.05 in Calm   1.2 mph 69 % 0.00 in
17:00 80.6 °F 69.5 °F 30.05 in Calm     69 % 0.00 in
17:05 80.6 °F 69.1 °F 30.05 in Calm     68 % 0.00 in
17:10 80.6 °F 69.5 °F 30.04 in Calm     69 % 0.00 in
17:15 80.5 °F 69.0 °F 30.04 in South 0.1 mph 1.2 mph 68 % 0.00 in
17:20 80.5 °F 69.4 °F 30.05 in Calm   1.0 mph 69 % 0.00 in
17:25 80.4 °F 69.3 °F 30.05 in South 0.5 mph 2.3 mph 69 % 0.00 in
17:30 80.3 °F 70.4 °F 30.05 in Calm     72 % 0.00 in
17:35 80.2 °F 70.4 °F 30.05 in Calm     72 % 0.00 in
17:41 80.1 °F 69.8 °F 30.05 in Calm     71 % 0.00 in
17:46 80.0 °F 69.7 °F 30.05 in Calm     71 % 0.00 in
17:51 79.9 °F 70.1 °F 30.05 in Calm     72 % 0.00 in
17:56 79.8 °F 70.4 °F 30.05 in Calm     73 % 0.00 in
18:01 79.7 °F 70.7 °F 30.05 in Calm     74 % 0.00 in
18:06 79.6 °F 70.6 °F 30.05 in Calm     74 % 0.00 in
18:11 79.5 °F 70.9 °F 30.05 in Calm     75 % 0.00 in
18:16 79.3 °F 71.5 °F 30.05 in Calm     77 % 0.00 in
18:21 79.0 °F 70.8 °F 30.05 in Calm     76 % 0.00 in
18:26 78.8 °F 70.6 °F 30.05 in Calm     76 % 0.00 in
18:31 78.5 °F 70.3 °F 30.05 in Calm     76 % 0.00 in
18:36 78.4 °F 71.0 °F 30.05 in Calm   1.0 mph 78 % 0.00 in
18:41 78.2 °F 70.8 °F 30.05 in Calm     78 % 0.00 in
18:46 78.0 °F 71.3 °F 30.05 in Calm     80 % 0.00 in
18:51 77.7 °F 71.4 °F 30.05 in Calm   2.0 mph 81 % 0.00 in
18:56 77.5 °F 71.6 °F 30.05 in Calm   1.0 mph 82 % 0.00 in
19:01 77.3 °F 71.4 °F 30.05 in Calm     82 % 0.00 in
19:06 77.1 °F 71.5 °F 30.06 in Calm     83 % 0.00 in
19:11 76.8 °F 71.6 °F 30.06 in Calm   1.0 mph 84 % 0.00 in
19:16 76.6 °F 71.4 °F 30.06 in South 0.3 mph 1.2 mph 84 % 0.00 in
19:21 76.4 °F 71.2 °F 30.06 in Calm   1.0 mph 84 % 0.00 in
19:26 76.2 °F 71.4 °F 30.06 in South 0.1 mph 1.2 mph 85 % 0.00 in
19:31 76.0 °F 71.2 °F 30.06 in South 0.1 mph 1.2 mph 85 % 0.00 in
19:36 75.8 °F 71.3 °F 30.06 in South 0.2 mph 1.2 mph 86 % 0.00 in
19:46 75.3 °F 70.8 °F 30.06 in South 0.5 mph 1.2 mph 86 % 0.00 in
19:51 75.1 °F 71.0 °F 30.06 in Calm     87 % 0.00 in
19:56 74.9 °F 70.8 °F 30.06 in South 0.2 mph 1.2 mph 87 % 0.00 in
20:01 74.7 °F 70.6 °F 30.06 in South 0.6 mph 1.2 mph 87 % 0.00 in
20:06 74.6 °F 70.5 °F 30.07 in South 0.3 mph 1.2 mph 87 % 0.00 in
20:11 74.4 °F 70.6 °F 30.07 in South 0.6 mph 2.3 mph 88 % 0.00 in
20:17 74.2 °F 70.4 °F 30.07 in South 0.5 mph 1.2 mph 88 % 0.00 in
20:22 74.0 °F 70.6 °F 30.07 in South 0.2 mph 1.2 mph 89 % 0.00 in
20:27 73.9 °F 70.5 °F 30.07 in Calm     89 % 0.00 in
20:32 73.7 °F 70.3 °F 30.07 in South 0.3 mph 1.2 mph 89 % 0.00 in
20:37 73.6 °F 70.2 °F 30.07 in South 0.5 mph 2.3 mph 89 % 0.00 in
20:42 73.5 °F 70.4 °F 30.07 in South 0.7 mph 1.2 mph 90 % 0.00 in
20:47 73.3 °F 70.2 °F 30.07 in Calm   1.2 mph 90 % 0.00 in
20:52 73.2 °F 70.1 °F 30.07 in Calm     90 % 0.00 in
20:57 73.0 °F 69.9 °F 30.07 in Calm   1.2 mph 90 % 0.00 in
21:02 72.9 °F 69.8 °F 30.07 in Calm   1.2 mph 90 % 0.00 in
21:08 72.8 °F 70.0 °F 30.07 in South 0.2 mph 1.2 mph 91 % 0.00 in
21:13 72.7 °F 69.9 °F 30.07 in Calm     91 % 0.00 in
21:18 72.5 °F 69.7 °F 30.07 in South 0.3 mph 1.2 mph 91 % 0.00 in
21:23 72.4 °F 69.6 °F 30.07 in South 0.2 mph 1.2 mph 91 % 0.00 in
21:28 72.3 °F 69.5 °F 30.07 in South 0.3 mph 1.2 mph 91 % 0.00 in
21:33 72.2 °F 69.4 °F 30.07 in South 0.1 mph 1.2 mph 91 % 0.00 in
21:38 72.1 °F 69.6 °F 30.07 in South 0.3 mph 1.2 mph 92 % 0.00 in
21:43 72.0 °F 69.5 °F 30.07 in South 0.1 mph 1.2 mph 92 % 0.00 in
21:48 72.0 °F 69.5 °F 30.07 in Calm   1.2 mph 92 % 0.00 in
21:59 71.9 °F 69.8 °F 30.07 in Calm     93 % 0.00 in
22:04 71.8 °F 69.3 °F 30.07 in Calm     92 % 0.00 in
22:09 71.7 °F 69.3 °F 30.07 in Calm     92 % 0.00 in
22:14 71.6 °F 69.5 °F 30.08 in Calm     93 % 0.00 in
22:19 71.5 °F 69.4 °F 30.08 in Calm     93 % 0.00 in
22:24 71.4 °F 69.3 °F 30.08 in Calm     93 % 0.00 in
22:34 71.2 °F 68.8 °F 30.08 in Calm     92 % 0.00 in
22:39 71.1 °F 69.0 °F 30.08 in Calm   1.2 mph 93 % 0.00 in
22:44 71.0 °F 68.9 °F 30.08 in Calm   2.3 mph 93 % 0.00 in
22:50 71.0 °F 68.9 °F 30.08 in Calm     93 % 0.00 in
22:55 70.9 °F 68.8 °F 30.08 in Calm     93 % 0.00 in
23:00 70.8 °F 68.7 °F 30.08 in Calm     93 % 0.00 in
23:05 70.7 °F 68.6 °F 30.08 in Calm     93 % 0.00 in
23:10 70.6 °F 68.5 °F 30.08 in Calm     93 % 0.00 in
23:15 70.4 °F 68.3 °F 30.08 in Calm     93 % 0.00 in
23:20 70.3 °F 68.2 °F 30.08 in Calm     93 % 0.00 in
23:25 70.2 °F 68.1 °F 30.08 in Calm     93 % 0.00 in
23:30 70.1 °F 68.0 °F 30.08 in Calm     93 % 0.00 in
23:36 69.9 °F 67.8 °F 30.08 in Calm     93 % 0.00 in
23:41 69.8 °F 67.7 °F 30.08 in Calm     93 % 0.00 in
23:46 69.7 °F 67.6 °F 30.08 in Calm     93 % 0.00 in
23:51 69.6 °F 67.5 °F 30.08 in Calm     93 % 0.00 in
23:55 69.5 °F 67.4 °F 30.07 in Calm     93 % 0.00 in
Crab Meadow Weather
Compliments of Weather Underground - 3 mb

Script developed by  Jim McMurry - jmcmurry@mwt.net Adapted for the template by  Wim van der Kuil - Leuven-Template.eu

Weather Terms: Winter Storm Watch - Conditions are favorable for hazardous winter weather conditions including heavy snow, blizzard conditions, or significant accumulations of freezing rain or sleet. These watches are issued by the Weather Service Forecast Office in Upton and are usually issued 12 to 36 hours in advance of the event.